Archiv-/Tagesdaten

--Timestamp---	Temp	Chill	HIndex	Humid	Dewpt	 Wind 	HiWind	WindDir	Rain 	Barom	Solar	 ET  	 UV 
--------------	----	-----	------	-----	-----	------	------	-------	-----	-----	-----	-----	----
20110222 00:00	-4.7	-4.7	-4.7	82	-7.3	3	10	112	0.0	1014.8	0	0.000	0.0
20110222 00:05	-4.7	-7.6	-4.7	82	-7.3	6	14	68	0.0	1014.6	0	0.000	0.0
20110222 00:10	-4.7	-4.7	-4.7	82	-7.3	5	10	68	0.0	1014.6	-100000	0.000	0.0
20110222 00:15	-4.8	-4.8	-4.8	82	-7.4	5	10	90	0.0	1014.7	0	0.000	0.0
20110222 00:20	-4.8	-4.8	-4.8	83	-7.2	5	8	68	0.0	1014.7	0	0.000	0.0
20110222 00:25	-4.8	-4.8	-4.8	83	-7.2	3	8	68	0.0	1014.7	0	0.000	0.0
20110222 00:30	-4.7	-4.7	-4.7	83	-7.2	3	8	90	0.0	1014.7	0	0.000	0.0
20110222 00:35	-4.7	-4.7	-4.7	83	-7.2	5	8	90	0.0	1014.7	0	0.000	0.0
20110222 00:40	-4.8	-4.8	-4.8	83	-7.2	5	10	90	0.0	1014.6	0	0.000	0.0
20110222 00:45	-4.7	-4.7	-4.7	83	-7.2	5	11	90	0.0	1014.6	0	0.000	0.0
20110222 00:50	-4.8	-4.8	-4.8	83	-7.2	5	11	112	0.0	1014.6	0	0.000	0.0
20110222 00:55	-4.8	-4.8	-4.8	83	-7.2	5	8	68	0.0	1014.6	0	0.000	0.0
20110222 01:00	-4.8	-4.8	-4.8	83	-7.2	5	10	135	0.0	1014.5	0	0.000	0.0
20110222 01:05	-4.8	-4.8	-4.8	83	-7.2	5	8	90	0.0	1014.5	0	0.000	0.0
20110222 01:10	-4.8	-4.8	-4.8	83	-7.3	5	10	90	0.0	1014.4	0	0.000	0.0
20110222 01:15	-4.8	-7.8	-4.8	82	-7.4	6	11	112	0.0	1014.5	0	0.000	0.0
20110222 01:20	-4.8	-7.8	-4.8	82	-7.4	6	14	90	0.0	1014.4	0	0.000	0.0
20110222 01:25	-4.8	-4.8	-4.8	82	-7.4	5	11	112	0.0	1014.4	0	0.000	0.0
20110222 01:30	-4.8	-7.8	-4.8	82	-7.4	6	11	90	0.0	1014.4	0	0.000	0.0
20110222 01:35	-4.8	-4.8	-4.8	82	-7.4	5	13	112	0.0	1014.5	0	0.000	0.0
20110222 01:40	-4.9	-4.9	-4.9	82	-7.5	5	10	135	0.0	1014.4	0	0.000	0.0
20110222 01:45	-4.9	-4.9	-4.9	82	-7.5	3	6	135	0.0	1014.5	0	0.000	0.0
20110222 01:50	-4.8	-4.8	-4.8	82	-7.4	3	6	112	0.0	1014.6	0	0.000	0.0
20110222 01:55	-4.8	-4.8	-4.8	83	-7.3	2	5	112	0.0	1014.6	0	0.000	0.0
20110222 02:00	-4.8	-4.8	-4.8	82	-7.4	2	6	90	0.0	1014.5	0	0.000	0.0
20110222 02:05	-4.8	-4.8	-4.8	82	-7.4	3	8	90	0.0	1014.5	0	0.000	0.0
20110222 02:10	-4.9	-4.9	-4.9	82	-7.5	5	11	90	0.0	1014.6	0	0.000	0.0
20110222 02:15	-4.9	-4.9	-4.9	82	-7.5	5	8	112	0.0	1014.6	0	0.000	0.0
20110222 02:20	-4.9	-4.9	-4.9	82	-7.5	3	10	112	0.0	1014.5	0	0.000	0.0
20110222 02:25	-4.9	-4.9	-4.9	82	-7.5	3	8	45	0.0	1014.6	0	0.000	0.0
20110222 02:30	-4.9	-4.9	-4.9	82	-7.5	5	11	68	0.0	1014.7	0	0.000	0.0
20110222 02:35	-4.9	-4.9	-4.9	83	-7.4	3	13	112	0.0	1014.6	0	0.000	0.0
20110222 02:40	-4.9	-7.9	-4.9	82	-7.5	6	10	90	0.0	1014.7	0	0.000	0.0
20110222 02:45	-5.0	-5.0	-5.0	82	-7.6	5	11	90	0.0	1014.6	0	0.000	0.0
20110222 02:50	-5.0	-5.0	-5.0	82	-7.6	5	10	90	0.0	1014.6	0	0.000	0.0
20110222 02:55	-5.0	-5.0	-5.0	83	-7.4	5	8	112	0.0	1014.6	0	0.000	0.0
20110222 03:00	-5.1	-5.1	-5.1	83	-7.5	5	10	68	0.0	1014.5	0	0.000	0.0
20110222 03:05	-5.1	-5.1	-5.1	83	-7.5	5	8	68	0.0	1014.6	0	0.000	0.0
20110222 03:10	-5.1	-5.1	-5.1	83	-7.5	3	8	90	0.0	1014.6	0	0.000	0.0
20110222 03:15	-5.1	-8.7	-5.1	83	-7.5	8	11	68	0.0	1014.6	0	0.000	0.0
20110222 03:20	-5.1	-8.1	-5.1	83	-7.5	6	14	68	0.0	1014.5	0	0.000	0.0
20110222 03:25	-5.1	-5.1	-5.1	83	-7.5	5	8	90	0.0	1014.4	0	0.000	0.0
20110222 03:30	-5.1	-5.1	-5.1	83	-7.5	5	10	90	0.0	1014.4	0	0.000	0.0
20110222 03:35	-5.2	-8.1	-5.2	83	-7.6	6	10	68	0.0	1014.4	0	0.000	0.0
20110222 03:40	-5.2	-8.1	-5.2	82	-7.8	6	11	68	0.0	1014.3	0	0.000	0.0
20110222 03:45	-5.2	-5.2	-5.2	83	-7.6	5	11	135	0.0	1014.1	0	0.000	0.0
20110222 03:50	-5.2	-5.2	-5.2	83	-7.6	5	10	90	0.0	1014.1	0	0.000	0.0
20110222 03:55	-5.2	-5.2	-5.2	83	-7.6	5	10	135	0.0	1014.1	0	0.000	0.0
20110222 04:00	-5.2	-5.2	-5.2	83	-7.6	3	11	135	0.0	1014.1	0	0.000	0.0
20110222 04:05	-5.2	-5.2	-5.2	83	-7.6	3	8	135	0.0	1014.2	0	0.000	0.0
20110222 04:10	-5.2	-5.2	-5.2	83	-7.6	3	6	112	0.0	1014.2	0	0.000	0.0
20110222 04:15	-5.2	-5.2	-5.2	83	-7.6	3	6	112	0.0	1014.1	0	0.000	0.0
20110222 04:20	-5.2	-5.2	-5.2	84	-7.4	3	8	112	0.0	1014.2	0	0.000	0.0
20110222 04:25	-5.2	-5.2	-5.2	83	-7.6	5	10	90	0.0	1014.3	0	0.000	0.0
20110222 04:30	-5.2	-5.2	-5.2	83	-7.6	3	6	135	0.0	1014.2	0	0.000	0.0
20110222 04:35	-5.2	-5.2	-5.2	83	-7.6	3	8	112	0.0	1014.2	0	0.000	0.0
20110222 04:40	-5.3	-5.3	-5.3	83	-7.7	2	6	90	0.0	1014.3	0	0.000	0.0
20110222 04:45	-5.3	-5.3	-5.3	83	-7.7	3	6	90	0.0	1014.2	0	0.000	0.0
20110222 04:50	-5.3	-5.3	-5.3	83	-7.8	3	8	68	0.0	1014.2	0	0.000	0.0
20110222 04:55	-5.3	-5.3	-5.3	84	-7.6	3	8	68	0.0	1014.3	0	0.000	0.0
20110222 05:00	-5.3	-5.3	-5.3	84	-7.6	2	6	135	0.0	1014.2	0	0.000	0.0
20110222 05:05	-5.3	-5.3	-5.3	84	-7.5	2	5	90	0.0	1014.3	0	0.000	0.0
20110222 05:10	-5.3	-5.3	-5.3	85	-7.4	2	6	90	0.0	1014.2	0	0.000	0.0
20110222 05:15	-5.3	-5.3	-5.3	85	-7.4	3	6	90	0.0	1014.2	0	0.000	0.0
20110222 05:20	-5.3	-5.3	-5.3	85	-7.5	3	6	112	0.0	1014.5	0	0.000	0.0
20110222 05:25	-5.4	-5.4	-5.4	85	-7.6	3	6	112	0.0	1014.5	0	0.000	0.0
20110222 05:30	-5.5	-5.5	-5.5	85	-7.6	5	6	68	0.0	1014.6	0	0.000	0.0
20110222 05:35	-5.5	-5.5	-5.5	86	-7.5	2	6	90	0.0	1014.5	0	0.000	0.0
20110222 05:40	-5.5	-5.5	-5.5	86	-7.5	2	6	90	0.0	1014.4	0	0.000	0.0
20110222 05:45	-5.6	-5.6	-5.6	86	-7.5	2	5	90	0.0	1014.4	0	0.000	0.0
20110222 05:50	-5.6	-5.6	-5.6	86	-7.5	3	6	90	0.0	1014.3	0	0.000	0.0
20110222 05:55	-5.6	-5.6	-5.6	86	-7.6	3	5	90	0.0	1014.4	0	0.000	0.0
20110222 06:00	-5.7	-5.7	-5.7	86	-7.6	2	8	90	0.0	1014.4	0	0.000	0.0
20110222 06:05	-5.7	-5.7	-5.7	86	-7.7	3	6	112	0.0	1014.4	0	0.000	0.0
20110222 06:10	-5.8	-5.8	-5.8	86	-7.7	3	5	90	0.2	1014.3	0	0.000	0.0
20110222 06:15	-5.9	-5.9	-5.9	87	-7.7	3	6	90	0.0	1014.5	0	0.000	0.0
20110222 06:20	-6.0	-6.0	-6.0	87	-7.8	3	8	90	0.0	1014.5	0	0.000	0.0
20110222 06:25	-6.1	-6.1	-6.1	87	-7.9	3	6	68	0.0	1014.4	0	0.000	0.0
20110222 06:30	-6.1	-6.1	-6.1	87	-7.9	3	8	68	0.0	1014.3	0	0.000	0.0
20110222 06:35	-6.1	-6.1	-6.1	87	-7.9	3	6	68	0.0	1014.4	0	0.000	0.0
20110222 06:40	-6.1	-6.1	-6.1	87	-7.9	2	5	68	0.0	1014.4	0	0.000	0.0
20110222 06:45	-6.1	-6.1	-6.1	87	-7.9	2	5	68	0.0	1014.4	0	0.000	0.0
20110222 06:50	-6.2	-6.2	-6.2	87	-8.0	3	6	68	0.0	1014.2	0	0.000	0.0
20110222 06:55	-6.2	-6.2	-6.2	86	-8.2	5	6	68	0.0	1014.3	0	0.000	0.0
20110222 07:00	-6.3	-6.3	-6.3	86	-8.2	3	8	68	0.0	1014.5	0	0.000	0.0
20110222 07:05	-6.3	-6.3	-6.3	86	-8.3	2	5	68	0.0	1014.6	0	0.000	0.0
20110222 07:10	-6.3	-6.3	-6.3	86	-8.3	3	8	68	0.0	1014.6	0	0.000	0.0
20110222 07:15	-6.3	-6.3	-6.3	86	-8.3	3	8	68	0.0	1014.5	0	0.000	0.0
20110222 07:20	-6.3	-6.3	-6.3	85	-8.4	3	6	68	0.0	1014.7	0	0.000	0.0
20110222 07:25	-6.3	-6.3	-6.3	85	-8.4	5	8	68	0.0	1014.7	3	0.000	0.0
20110222 07:30	-6.3	-6.3	-6.3	85	-8.4	3	6	68	0.0	1014.7	6	0.000	0.0
20110222 07:35	-6.3	-6.3	-6.3	85	-8.4	2	5	68	0.0	1014.8	7	0.000	0.0
20110222 07:40	-6.3	-6.3	-6.3	85	-8.4	3	6	68	0.0	1014.9	9	0.000	0.0
20110222 07:45	-6.3	-6.3	-6.3	84	-8.5	2	6	68	0.0	1014.9	13	0.000	0.0
20110222 07:50	-6.2	-6.2	-6.2	84	-8.5	2	5	68	0.0	1015.0	19	0.000	0.0
20110222 07:55	-6.2	-6.2	-6.2	85	-8.3	3	6	68	0.0	1015.0	18	0.000	0.0
20110222 08:00	-6.1	-6.1	-6.1	84	-8.4	3	6	112	0.0	1014.9	18	0.000	0.0
20110222 08:05	-6.1	-6.1	-6.1	84	-8.3	3	6	112	0.0	1014.9	21	0.000	0.0
20110222 08:10	-6.0	-6.0	-6.0	84	-8.3	3	5	112	0.0	1015.1	22	0.000	0.0
20110222 08:15	-5.9	-5.9	-5.9	83	-8.4	3	6	112	0.0	1015.1	21	0.000	0.0
20110222 08:20	-5.9	-5.9	-5.9	83	-8.3	3	8	90	0.0	1015.2	26	0.000	0.0
20110222 08:25	-5.8	-5.8	-5.8	83	-8.2	5	10	90	0.0	1015.2	33	0.000	0.0
20110222 08:30	-5.8	-5.8	-5.8	82	-8.3	5	10	68	0.0	1015.1	39	0.000	0.0
20110222 08:35	-5.7	-5.7	-5.7	82	-8.2	5	10	135	0.0	1015.2	31	0.000	0.0
20110222 08:40	-5.6	-5.6	-5.6	82	-8.2	3	6	112	0.0	1015.2	34	0.000	0.0
20110222 08:45	-5.6	-5.6	-5.6	82	-8.1	5	10	90	0.0	1015.1	42	0.000	0.0
20110222 08:50	-5.6	-5.6	-5.6	82	-8.1	3	8	90	0.0	1015.2	40	0.000	0.0
20110222 08:55	-5.5	-5.5	-5.5	82	-8.1	3	6	135	0.0	1015.2	49	0.000	0.0
20110222 09:00	-5.4	-5.4	-5.4	82	-8.0	3	8	135	0.0	1015.2	49	0.025	0.0
20110222 09:05	-5.4	-5.4	-5.4	81	-8.1	3	6	135	0.0	1015.1	48	0.000	0.0
20110222 09:10	-5.3	-5.3	-5.3	81	-8.1	5	8	90	0.0	1015.2	58	0.000	0.0
20110222 09:15	-5.3	-5.3	-5.3	81	-8.0	3	6	112	0.0	1015.2	68	0.000	0.0
20110222 09:20	-5.3	-5.3	-5.3	81	-8.0	3	6	112	0.0	1015.2	87	0.000	0.0
20110222 09:25	-5.2	-5.2	-5.2	81	-7.9	5	8	135	0.0	1015.2	82	0.000	0.0
20110222 09:30	-5.1	-5.1	-5.1	80	-8.0	5	6	135	0.0	1015.3	77	0.000	0.0
20110222 09:35	-5.1	-5.1	-5.1	80	-8.0	3	6	135	0.0	1015.3	79	0.000	0.0
20110222 09:40	-5.0	-5.0	-5.0	80	-7.9	3	6	135	0.0	1015.3	86	0.000	0.0
20110222 09:45	-4.9	-4.9	-4.9	80	-7.9	2	6	135	0.0	1015.2	93	0.000	0.0
20110222 09:50	-4.9	-4.9	-4.9	80	-7.8	3	8	135	0.0	1015.2	92	0.000	0.0
20110222 09:55	-4.9	-4.9	-4.9	80	-7.8	3	10	90	0.0	1015.2	138	0.000	0.0
20110222 10:00	-4.7	-4.7	-4.7	79	-7.8	5	10	135	0.0	1015.2	165	0.025	0.0
20110222 10:05	-4.7	-4.7	-4.7	79	-7.8	5	8	112	0.0	1015.1	150	0.000	0.0
20110222 10:10	-4.6	-4.6	-4.6	79	-7.7	5	10	135	0.0	1015.2	152	0.000	0.0
20110222 10:15	-4.6	-4.6	-4.6	79	-7.6	3	8	112	0.0	1015.2	151	0.000	0.0
20110222 10:20	-4.7	-4.7	-4.7	78	-7.9	5	10	45	0.0	1015.2	132	0.000	0.0
20110222 10:25	-4.7	-4.7	-4.7	79	-7.7	5	10	45	0.0	1015.2	126	0.000	0.0
20110222 10:30	-4.6	-4.6	-4.6	79	-7.7	3	8	112	0.0	1015.3	136	0.000	0.0
20110222 10:35	-4.5	-4.5	-4.5	79	-7.6	3	6	112	0.0	1015.3	130	0.000	0.0
20110222 10:40	-4.5	-4.5	-4.5	79	-7.6	3	6	90	0.0	1015.4	105	0.000	0.0
20110222 10:45	-4.6	-4.6	-4.6	78	-7.8	3	8	112	0.0	1015.4	83	0.000	0.0
20110222 10:50	-4.6	-4.6	-4.6	78	-7.9	2	5	112	0.0	1015.4	64	0.000	0.0
20110222 10:55	-4.7	-4.7	-4.7	79	-7.8	3	10	112	0.0	1015.5	71	0.000	0.0
20110222 11:00	-4.8	-4.8	-4.8	78	-8.0	5	10	45	0.0	1015.6	72	0.025	0.0
20110222 11:05	-4.8	-4.8	-4.8	78	-8.0	2	5	45	0.0	1015.7	78	0.000	0.0
20110222 11:10	-4.8	-4.8	-4.8	78	-8.0	0	3	45	0.0	1015.8	67	0.000	0.0
20110222 11:15	-4.8	-4.8	-4.8	78	-8.0	2	6	112	0.0	1015.9	65	0.000	0.0
20110222 11:20	-4.7	-4.7	-4.7	79	-7.8	2	5	135	0.0	1015.7	72	0.000	0.0
20110222 11:25	-4.7	-4.7	-4.7	79	-7.7	0	5	135	0.0	1015.8	69	0.000	0.0
20110222 11:30	-4.6	-4.6	-4.6	79	-7.7	2	5	135	0.0	1015.8	73	0.000	0.0
20110222 11:35	-4.7	-4.7	-4.7	78	-7.9	5	8	22	0.0	1015.8	78	0.000	0.0
20110222 11:40	-4.7	-4.7	-4.7	78	-8.0	5	8	22	0.0	1015.9	90	0.000	0.0
20110222 11:45	-4.7	-4.7	-4.7	79	-7.8	3	8	45	0.0	1015.9	98	0.000	0.0
20110222 11:50	-4.7	-4.7	-4.7	78	-8.0	5	10	22	0.0	1015.8	102	0.000	0.1
20110222 11:55	-4.7	-4.7	-4.7	78	-8.0	5	11	22	0.0	1015.9	96	0.000	0.0
20110222 12:00	-4.7	-4.7	-4.7	78	-7.9	5	8	22	0.0	1016.0	93	0.025	0.0
20110222 12:05	-4.7	-4.7	-4.7	78	-7.9	5	8	68	0.0	1016.0	97	0.000	0.4
20110222 12:10	-4.7	-4.7	-4.7	78	-7.9	5	6	45	0.0	1016.1	114	0.000	0.5
20110222 12:15	-4.7	-4.7	-4.7	77	-8.1	3	6	45	0.0	1016.1	124	0.000	0.6
20110222 12:20	-4.6	-4.6	-4.6	77	-8.0	3	6	45	0.0	1016.1	-100000	0.000	0.6
20110222 12:25	-4.6	-4.6	-4.6	77	-8.0	2	6	45	0.0	1016.1	128	0.000	0.6
20110222 12:30	-4.5	-4.5	-4.5	77	-7.9	3	6	45	0.0	1016.2	115	0.000	0.6
20110222 12:35	-4.5	-4.5	-4.5	77	-7.9	2	6	45	0.0	1016.1	98	0.000	0.6
20110222 12:40	-4.5	-4.5	-4.5	77	-7.9	2	3	45	0.0	1016.1	98	0.000	0.6
20110222 12:45	-4.5	-4.5	-4.5	76	-8.1	0	3	45	0.0	1016.2	93	0.000	0.6
20110222 12:50	-4.4	-4.4	-4.4	76	-8.0	2	5	45	0.0	1016.1	83	0.000	0.5
20110222 12:55	-4.4	-4.4	-4.4	76	-8.0	0	3	45	0.0	1016.2	78	0.000	0.5
20110222 13:00	-4.4	-4.4	-4.4	76	-8.0	2	5	45	0.0	1016.2	83	0.025	0.5
20110222 13:05	-4.4	-4.4	-4.4	76	-8.0	2	5	45	0.0	1016.3	92	0.000	0.5
20110222 13:10	-4.4	-4.4	-4.4	76	-8.0	0	3	45	0.0	1016.3	107	0.000	0.6
20110222 13:15	-4.3	-4.3	-4.3	76	-7.9	2	5	45	0.0	1016.3	112	0.000	0.6
20110222 13:20	-4.2	-4.2	-4.2	76	-7.8	3	5	45	0.0	1016.4	130	0.000	0.6
20110222 13:25	-4.2	-4.2	-4.2	75	-8.0	3	5	45	0.0	1016.4	144	0.000	0.6
20110222 13:30	-4.2	-4.2	-4.2	76	-7.8	3	6	45	0.0	1016.3	140	0.000	0.6
20110222 13:35	-4.2	-4.2	-4.2	75	-7.9	3	5	45	0.0	1016.2	126	0.000	0.5
20110222 13:40	-4.2	-4.2	-4.2	76	-7.8	5	8	45	0.0	1016.2	119	0.000	0.5
20110222 13:45	-4.2	-4.2	-4.2	76	-7.8	5	8	45	0.0	1016.3	124	0.000	0.5
20110222 13:50	-4.2	-4.2	-4.2	76	-7.8	3	6	45	0.0	1016.4	117	0.000	0.5
20110222 13:55	-4.2	-4.2	-4.2	75	-7.9	3	8	45	0.0	1016.3	118	0.000	0.5
20110222 14:00	-4.1	-4.1	-4.1	76	-7.6	3	14	22	0.0	1016.2	122	0.051	0.5
20110222 14:05	-4.1	-4.1	-4.1	75	-7.8	3	6	22	0.0	1016.3	131	0.000	0.5
20110222 14:10	-4.1	-4.1	-4.1	73	-8.2	3	8	68	0.0	1016.3	144	0.000	0.6
20110222 14:15	-4.1	-6.9	-4.1	73	-8.2	6	11	22	0.0	1016.4	163	0.000	0.6
20110222 14:20	-3.9	-3.9	-3.9	72	-8.2	3	8	315	0.0	1016.3	184	0.000	0.7
20110222 14:25	-3.8	-3.8	-3.8	71	-8.3	0	0	-100000	0.0	1016.3	173	0.000	0.6
20110222 14:30	-3.6	-3.6	-3.6	70	-8.2	0	5	315	0.0	1016.3	161	0.000	0.6
20110222 14:35	-3.4	-3.4	-3.4	71	-7.9	2	10	315	0.0	1016.4	158	0.000	0.6
20110222 14:40	-3.6	-7.0	-3.6	70	-8.3	8	11	22	0.0	1016.5	161	0.000	0.5
20110222 14:45	-3.8	-3.8	-3.8	69	-8.6	3	6	45	0.0	1016.6	158	0.000	0.5
20110222 14:50	-3.7	-3.7	-3.7	69	-8.6	0	3	45	0.0	1016.6	155	0.000	0.5
20110222 14:55	-3.6	-3.6	-3.6	71	-8.1	2	5	45	0.0	1016.6	169	0.000	0.5
20110222 15:00	-3.6	-3.6	-3.6	69	-8.4	2	5	45	0.0	1016.7	182	0.051	0.5
20110222 15:05	-3.5	-3.5	-3.5	70	-8.2	3	6	45	0.0	1016.8	205	0.000	0.4
20110222 15:10	-3.4	-3.4	-3.4	69	-8.3	2	5	45	0.0	1016.9	173	0.000	0.0
20110222 15:15	-3.4	-3.4	-3.4	70	-8.1	3	6	45	0.0	1016.9	166	0.000	0.0
20110222 15:20	-3.5	-3.5	-3.5	70	-8.2	3	8	45	0.0	1016.9	152	0.000	0.0
20110222 15:25	-3.6	-3.6	-3.6	69	-8.4	5	8	45	0.0	1017.0	173	0.000	0.0
20110222 15:30	-3.6	-3.6	-3.6	70	-8.2	3	6	45	0.0	1017.0	157	0.000	0.0
20110222 15:35	-3.5	-3.5	-3.5	70	-8.2	0	5	45	0.0	1017.1	152	0.000	0.0
20110222 15:40	-3.5	-3.5	-3.5	70	-8.2	3	8	45	0.0	1017.1	148	0.000	0.0
20110222 15:45	-3.5	-3.5	-3.5	76	-7.1	3	6	45	0.0	1017.1	148	0.000	0.0
20110222 15:50	-3.5	-3.5	-3.5	73	-7.6	5	10	45	0.0	1017.1	134	0.000	0.0
20110222 15:55	-3.7	-3.7	-3.7	71	-8.2	5	8	45	0.0	1017.2	111	0.000	0.0
20110222 16:00	-3.8	-3.8	-3.8	73	-7.9	2	6	45	0.0	1017.3	95	0.051	0.0
20110222 16:05	-3.7	-3.7	-3.7	73	-7.8	2	5	45	0.0	1017.5	85	0.000	0.0
20110222 16:10	-3.7	-3.7	-3.7	72	-8.0	0	3	45	0.0	1017.5	-100000	0.000	0.0
20110222 16:15	-3.7	-3.7	-3.7	73	-7.8	2	5	45	0.0	1017.6	67	0.000	0.0
20110222 16:20	-3.7	-3.7	-3.7	72	-8.0	0	5	45	0.0	1017.5	56	0.000	0.0
20110222 16:25	-3.6	-3.6	-3.6	72	-7.9	0	5	45	0.0	1017.6	56	0.000	0.0
20110222 16:30	-3.6	-3.6	-3.6	72	-7.9	0	0	-100000	0.0	1017.7	49	0.000	0.0
20110222 16:35	-3.5	-3.5	-3.5	71	-8.0	0	2	45	0.0	1017.7	40	0.000	0.0
20110222 16:40	-3.4	-3.4	-3.4	72	-7.8	0	2	45	0.0	1017.8	37	0.000	0.0
20110222 16:45	-3.6	-3.6	-3.6	71	-8.0	2	5	45	0.0	1017.8	32	0.000	0.0
20110222 16:50	-3.7	-3.7	-3.7	71	-8.1	2	5	45	0.0	1017.9	27	0.000	0.0
20110222 16:55	-3.8	-3.8	-3.8	70	-8.5	5	6	45	0.0	1018.0	24	0.000	0.0
20110222 17:00	-3.9	-3.9	-3.9	72	-8.2	3	6	45	0.0	1018.1	22	0.025	0.0
20110222 17:05	-3.9	-3.9	-3.9	71	-8.4	2	5	45	0.0	1018.1	21	0.000	0.0
20110222 17:10	-4.0	-4.0	-4.0	72	-8.3	2	5	45	0.0	1018.2	18	0.000	0.0
20110222 17:15	-4.0	-4.0	-4.0	72	-8.3	0	0	-100000	0.0	1018.2	13	0.000	0.0
20110222 17:20	-4.0	-4.0	-4.0	72	-8.3	0	0	-100000	0.0	1018.2	10	0.000	0.0
20110222 17:25	-3.9	-3.9	-3.9	72	-8.2	0	2	45	0.0	1018.4	8	0.000	0.0
20110222 17:30	-3.9	-3.9	-3.9	70	-8.6	0	2	45	0.0	1018.5	5	0.000	0.0
20110222 17:35	-3.9	-3.9	-3.9	70	-8.6	0	2	45	0.0	1018.5	1	0.000	0.0
20110222 17:40	-3.9	-3.9	-3.9	71	-8.4	0	0	-100000	0.0	1018.6	0	0.000	0.0
20110222 17:45	-3.8	-3.8	-3.8	71	-8.3	0	0	-100000	0.0	1018.7	0	0.000	0.0
20110222 17:50	-3.8	-3.8	-3.8	71	-8.3	0	2	45	0.0	1018.8	0	0.000	0.0
20110222 17:55	-3.8	-3.8	-3.8	68	-8.9	2	5	45	0.0	1018.9	0	0.000	0.0
20110222 18:00	-3.8	-3.8	-3.8	68	-8.9	2	5	45	0.0	1019.0	0	0.000	0.0
20110222 18:05	-3.8	-3.8	-3.8	69	-8.7	2	5	45	0.0	1019.1	0	0.000	0.0
20110222 18:10	-3.8	-3.8	-3.8	70	-8.5	0	3	45	0.0	1019.2	0	0.000	0.0
20110222 18:15	-3.8	-3.8	-3.8	69	-8.7	0	3	45	0.0	1019.3	0	0.000	0.0
20110222 18:20	-3.8	-3.8	-3.8	69	-8.7	2	5	45	0.0	1019.4	0	0.000	0.0
20110222 18:25	-3.9	-3.9	-3.9	68	-8.9	2	6	45	0.0	1019.4	0	0.000	0.0
20110222 18:30	-3.8	-3.8	-3.8	69	-8.7	2	8	45	0.0	1019.6	0	0.000	0.0
20110222 18:35	-3.8	-3.8	-3.8	68	-8.9	3	8	45	0.0	1019.6	0	0.000	0.0
20110222 18:40	-3.8	-3.8	-3.8	66	-9.2	3	8	315	0.0	1019.7	0	0.000	0.0
20110222 18:45	-3.8	-3.8	-3.8	67	-9.0	2	5	315	0.0	1019.8	0	0.000	0.0
20110222 18:50	-3.8	-3.8	-3.8	68	-8.8	0	5	315	0.0	1019.7	0	0.000	0.0
20110222 18:55	-3.8	-3.8	-3.8	68	-8.8	0	5	315	0.0	1019.7	0	0.000	0.0
20110222 19:00	-3.7	-3.7	-3.7	69	-8.6	0	0	-100000	0.0	1019.8	0	0.025	0.0
20110222 19:05	-3.7	-3.7	-3.7	68	-8.8	0	0	-100000	0.0	1019.8	0	0.000	0.0
20110222 19:10	-3.7	-3.7	-3.7	69	-8.6	2	5	315	0.0	1019.9	0	0.000	0.0
20110222 19:15	-3.7	-3.7	-3.7	69	-8.6	0	2	315	0.0	1020.0	0	0.000	0.0
20110222 19:20	-3.8	-3.8	-3.8	69	-8.6	0	0	-100000	0.0	1020.1	0	0.000	0.0
20110222 19:25	-3.8	-3.8	-3.8	70	-8.4	0	0	-100000	0.0	1020.2	0	0.000	0.0
20110222 19:30	-3.8	-3.8	-3.8	70	-8.4	0	0	-100000	0.0	1020.2	0	0.000	0.0
20110222 19:35	-3.8	-3.8	-3.8	70	-8.4	0	3	315	0.0	1020.2	0	0.000	0.0
20110222 19:40	-3.7	-3.7	-3.7	71	-8.2	0	3	315	0.0	1020.2	0	0.000	0.0
20110222 19:45	-3.7	-3.7	-3.7	70	-8.4	0	0	-100000	0.0	1020.2	0	0.000	0.0
20110222 19:50	-3.8	-3.8	-3.8	70	-8.4	0	0	-100000	0.0	1020.2	0	0.000	0.0
20110222 19:55	-3.8	-3.8	-3.8	69	-8.6	0	0	-100000	0.0	1020.2	0	0.000	0.0
20110222 20:00	-3.7	-3.7	-3.7	69	-8.6	0	0	-100000	0.0	1020.3	0	0.000	0.0
20110222 20:05	-3.7	-3.7	-3.7	69	-8.5	0	2	315	0.0	1020.3	0	0.000	0.0
20110222 20:10	-3.7	-3.7	-3.7	68	-8.7	0	0	-100000	0.0	1020.4	0	0.000	0.0
20110222 20:15	-3.7	-3.7	-3.7	68	-8.8	0	0	-100000	0.0	1020.5	0	0.000	0.0
20110222 20:20	-3.7	-3.7	-3.7	68	-8.8	0	0	-100000	0.0	1020.5	0	0.000	0.0
20110222 20:25	-3.7	-3.7	-3.7	68	-8.8	0	2	315	0.0	1020.6	0	0.000	0.0
20110222 20:30	-3.7	-3.7	-3.7	68	-8.8	0	2	315	0.0	1020.6	0	0.000	0.0
20110222 20:35	-3.7	-3.7	-3.7	69	-8.5	0	0	-100000	0.0	1020.7	0	0.000	0.0
20110222 20:40	-3.7	-3.7	-3.7	68	-8.7	0	0	-100000	0.0	1020.7	0	0.000	0.0
20110222 20:45	-3.7	-3.7	-3.7	67	-8.9	0	0	-100000	0.0	1020.7	0	0.000	0.0
20110222 20:50	-3.7	-3.7	-3.7	68	-8.7	0	2	315	0.0	1020.8	0	0.000	0.0
20110222 20:55	-3.6	-3.6	-3.6	68	-8.6	0	0	-100000	0.0	1020.7	0	0.000	0.0
20110222 21:00	-3.6	-3.6	-3.6	69	-8.4	0	0	-100000	0.0	1020.8	0	0.000	0.0
20110222 21:05	-3.6	-3.6	-3.6	68	-8.6	0	0	-100000	0.0	1020.6	0	0.000	0.0
20110222 21:10	-3.6	-3.6	-3.6	66	-9.0	0	0	-100000	0.0	1020.7	0	0.000	0.0
20110222 21:15	-3.6	-3.6	-3.6	65	-9.2	0	0	-100000	0.0	1020.8	0	0.000	0.0
20110222 21:20	-3.5	-3.5	-3.5	67	-8.7	0	0	-100000	0.0	1020.8	0	0.000	0.0
20110222 21:25	-3.5	-3.5	-3.5	67	-8.7	0	0	-100000	0.0	1020.9	0	0.000	0.0
20110222 21:30	-3.5	-3.5	-3.5	68	-8.5	2	6	315	0.0	1020.9	0	0.000	0.0
20110222 21:35	-3.6	-3.6	-3.6	69	-8.5	3	6	315	0.0	1020.9	0	0.000	0.0
20110222 21:40	-3.7	-3.7	-3.7	70	-8.3	2	3	315	0.0	1021.0	0	0.000	0.0
20110222 21:45	-3.7	-3.7	-3.7	71	-8.2	2	6	270	0.0	1021.1	0	0.000	0.0
20110222 21:50	-3.8	-3.8	-3.8	71	-8.3	3	6	270	0.0	1021.1	0	0.000	0.0
20110222 21:55	-3.8	-3.8	-3.8	71	-8.3	2	6	270	0.0	1021.1	0	0.000	0.0
20110222 22:00	-3.8	-3.8	-3.8	68	-8.9	2	5	270	0.0	1021.1	0	0.025	0.0
20110222 22:05	-3.8	-3.8	-3.8	70	-8.5	3	8	202	0.0	1021.2	0	0.000	0.0
20110222 22:10	-3.8	-3.8	-3.8	70	-8.5	3	6	202	0.0	1021.2	0	0.000	0.0
20110222 22:15	-3.8	-3.8	-3.8	70	-8.5	3	5	202	0.0	1021.2	0	0.000	0.0
20110222 22:20	-3.8	-3.8	-3.8	70	-8.5	3	6	202	0.0	1021.2	0	0.000	0.0
20110222 22:25	-3.8	-3.8	-3.8	69	-8.7	0	3	202	0.0	1021.3	0	0.000	0.0
20110222 22:30	-3.8	-3.8	-3.8	69	-8.7	2	5	202	0.0	1021.3	0	0.000	0.0
20110222 22:35	-3.8	-3.8	-3.8	70	-8.5	2	6	202	0.0	1021.3	0	0.000	0.0
20110222 22:40	-3.8	-3.8	-3.8	71	-8.3	3	11	202	0.0	1021.3	0	0.000	0.0
20110222 22:45	-3.9	-6.7	-3.9	73	-8.1	6	14	22	0.0	1021.5	0	0.000	0.0
20110222 22:50	-4.2	-7.1	-4.2	74	-8.2	6	10	22	0.0	1021.5	0	0.000	0.0
20110222 22:55	-4.4	-7.2	-4.4	75	-8.1	6	10	45	0.0	1021.7	0	0.000	0.0
20110222 23:00	-4.5	-4.5	-4.5	76	-8.1	5	8	45	0.0	1021.7	0	0.025	0.0
20110222 23:05	-4.7	-4.7	-4.7	76	-8.2	5	10	45	0.0	1021.6	0	0.000	0.0
20110222 23:10	-4.7	-7.6	-4.7	77	-8.1	6	10	22	0.0	1021.7	0	0.000	0.0
20110222 23:15	-4.8	-4.8	-4.8	77	-8.2	5	10	22	0.0	1021.8	0	0.000	0.0
20110222 23:20	-4.9	-4.9	-4.9	78	-8.1	5	8	22	0.0	1021.8	0	0.000	0.0
20110222 23:25	-4.9	-4.9	-4.9	78	-8.2	5	6	22	0.0	1021.8	0	0.000	0.0
20110222 23:30	-5.0	-5.0	-5.0	79	-8.1	3	6	22	0.0	1021.9	0	0.000	0.0
20110222 23:35	-5.1	-5.1	-5.1	79	-8.2	5	10	22	0.0	1021.9	0	0.000	0.0
20110222 23:40	-5.2	-5.2	-5.2	79	-8.2	3	8	22	0.0	1022.0	0	0.000	0.0
20110222 23:45	-5.2	-5.2	-5.2	79	-8.3	3	8	22	0.0	1022.0	0	0.000	0.0
20110222 23:50	-5.3	-5.3	-5.3	79	-8.3	5	6	22	0.0	1022.1	0	0.000	0.0
20110222 23:55	-5.3	-5.3	-5.3	80	-8.2	3	5	22	0.0	1022.2	0	0.000	0.0



Please note the license to use and transfer of this data:
http://creativecommons.org/licenses/by-nc-sa/3.0/deed.en

Bitte beachten sie die Lizenz zur Verwertung und Weitergabe der Daten:
http://creativecommons.org/licenses/by-nc-sa/3.0/deed.de

zurück zur Übersicht der Archivdaten (Monats und Tagesdaten)

Cookies helfen bei der Bereitstellung von Inhalten. Durch die Nutzung dieser Seiten erklärst du dich damit einverstanden, dass Cookies auf deinem Rechner gespeichert werden. Weitere Information